Domov               UVHVVR             MKGP            O straneh              
ZDRAVSTVENO VARSTVO RASTLIN
  MREŽA AGROMET. POSTAJ
 ► PROGNOSTIČNA OBVESTILA
AGROMETEOROLOŠKI PODATKI -
ARSO
OBVLADOVANJE TVEGANJ ZARADI
NEUGODNIH VREMENSKIH RAZMER
  ► NARAVNE NESREČE
  ► SUŠA/MOČA
  ► NAMAKANJE
  ► ŽLED (gozdarstvo)
KARTOGRAFSKI PRIKAZI
SPLETNE POVEZAVE
PROJEKTI IN PUBLIKACIJE

AGROMETEOROLOŠKA MREŽA: VREMENSKE POSTAJE IN FENOLOŠKA OPAZOVANJA

Pregled podatkov za lokacijo Črnomelj, meteorološka postaja 859096

Pregled senzorjev na lokaciji

ID Ime Zadnja
vrednost
Datum
zadnje
spremembe
Tip
senzorja
4082 Omočenost lista (U) 0 U 25.3.2019 00:44 A730WET
4083 Padavine (mm) 0 mm 25.3.2019 00:45 Rain-O-Matic
4081 Relativna vlaga 2 m (% RH) 37,98 % RH 25.3.2019 00:44 50YA
4080 Temperatura 2 m (°C) 14,23 °C 25.3.2019 00:45 50YA

Pregled podatkov zadnjih 24 ur

Zap.
št.
Datum in čas Črnomelj
Omočenost
lista
Padavine Relativna
vlaga
2
m
Temperatura
2
m
1 25.3.2019 00:00
2 24.3.2019 23:30 0 0 38,6 14,3
3 24.3.2019 23:00 0 0 39,1 14,4
4 24.3.2019 22:30 0 0 39,8 14,4
5 24.3.2019 22:00 0 0 43,1 13,5
6 24.3.2019 21:30 0 0 40,9 14,3
7 24.3.2019 21:00 0 0 44,2 13,6
8 24.3.2019 20:30 0 0 43,8 14,1
9 24.3.2019 20:00 0 0 43,1 14,6
10 24.3.2019 19:30 0 0 43,7 14,8
11 24.3.2019 19:00 0 0 45,6 14,7
12 24.3.2019 18:30 0 0 49 14,5
13 24.3.2019 18:00 0 0 46,5 15,8
14 24.3.2019 17:30 0 0 36,1 18,3
15 24.3.2019 17:00 0 0 28,4 20,2
16 24.3.2019 16:30 0 0 25,2 21,9
17 24.3.2019 16:00 0 0 25,2 21,9
18 24.3.2019 15:30 0 0 24,8 22,2
19 24.3.2019 15:00 0 0 26 21,8
20 24.3.2019 14:30 0 0 25,2 21,6
21 24.3.2019 14:00 0 0 27,2 21,2
22 24.3.2019 13:30 0 0 29,1 20,8
23 24.3.2019 13:00 0 0 30,2 20,3
24 24.3.2019 12:30 0 0 32,6 19,7
25 24.3.2019 12:00 0 0 33,8 19,1
26 24.3.2019 11:30 0 0 35,1 18,6
27 24.3.2019 11:00 0 0 38,1 17,7
28 24.3.2019 10:30 0 0 40,2 16,6
29 24.3.2019 10:00 0 0 45,5 15,6
30 24.3.2019 09:30 0 0 50,3 14,3
31 24.3.2019 09:00 0 0 54,8 12,6
32 24.3.2019 08:30 0 0 59,7 11,2
33 24.3.2019 08:00 0 0 66 9,3
34 24.3.2019 07:30 0 0 66,8 9,4
35 24.3.2019 07:00 0 0 66,4 8,2
36 24.3.2019 06:30 0 0 68 7,4
37 24.3.2019 06:00 0 0 76,2 5,5
38 24.3.2019 05:30 0 0 72,9 6,1
39 24.3.2019 05:00 0 0 66,9 7,6
40 24.3.2019 04:30 0 0 69 6,9
41 24.3.2019 04:00 0 0 70,5 6,6
42 24.3.2019 03:30 0 0 67,3 7,2
43 24.3.2019 03:00 0 0 58,1 9,3
44 24.3.2019 02:30 0 0 58,6 9,2
45 24.3.2019 02:00 0 0 59,6 9,1
46 24.3.2019 01:30 0 0 59,1 9,2
47 24.3.2019 01:00 0 0 57,4 9,6
48 24.3.2019 00:30 0 0 60,4 9
© 2011 Ministrstvo za kmetijstvo, gozdarstvo in prehrano. Vse pravice pridržane.